createdAt,value
2019-01-16T00:00:19.230Z,4.00
2019-01-16T00:03:05.041Z,4.55
2019-01-16T00:05:58.842Z,3.80
2019-01-16T00:08:40.985Z,4.47
2019-01-16T00:11:36.321Z,4.15
2019-01-16T00:14:28.657Z,4.10
2019-01-16T00:17:17.273Z,4.40
2019-01-16T00:20:19.826Z,4.37
2019-01-16T00:23:11.929Z,4.67
2019-01-16T00:26:20.496Z,4.50
2019-01-16T00:29:11.649Z,4.23
2019-01-16T00:32:00.637Z,4.73
2019-01-16T00:34:50.079Z,4.10
2019-01-16T00:37:46.878Z,4.92
2019-01-16T00:40:40.372Z,4.60
2019-01-16T00:43:29.882Z,5.05
2019-01-16T00:46:19.242Z,4.80
2019-01-16T00:49:13.157Z,4.65
2019-01-16T00:52:03.618Z,4.70
2019-01-16T00:54:54.371Z,4.53
2019-01-16T00:58:03.188Z,4.87
2019-01-16T01:00:59.457Z,4.37
2019-01-16T01:03:44.322Z,4.83
2019-01-16T01:06:26.821Z,5.08
2019-01-16T01:09:10.434Z,5.20
2019-01-16T01:11:58.562Z,4.85
2019-01-16T01:14:51.835Z,4.73
2019-01-16T01:17:36.126Z,5.45
2019-01-16T01:20:35.169Z,4.58
2019-01-16T01:23:24.527Z,5.03
2019-01-16T01:26:06.970Z,5.08
2019-01-16T01:28:57.525Z,4.67
2019-01-16T01:31:51.119Z,5.08
2019-01-16T01:34:37.023Z,4.83
2019-01-16T01:37:36.919Z,4.97
2019-01-16T01:40:27.835Z,4.37
2019-01-16T01:43:36.710Z,4.53
2019-01-16T01:46:25.761Z,4.40
2019-01-16T01:49:05.948Z,4.53
2019-01-16T01:51:55.162Z,4.57
2019-01-16T01:54:57.718Z,4.17
2019-01-16T01:57:51.483Z,4.53
2019-01-16T02:00:49.601Z,4.70
2019-01-16T02:03:52.452Z,4.20
2019-01-16T02:06:40.650Z,4.93
2019-01-16T02:09:23.921Z,4.90
2019-01-16T02:12:17.424Z,5.10
2019-01-16T02:15:02.031Z,4.60
2019-01-16T02:17:58.664Z,4.37
2019-01-16T02:20:46.803Z,4.73
2019-01-16T02:23:36.252Z,4.25
2019-01-16T02:26:27.007Z,4.10
2019-01-16T02:29:17.739Z,4.50
2019-01-16T02:32:11.015Z,4.77
2019-01-16T02:35:07.644Z,4.00
2019-01-16T02:37:58.135Z,4.47
2019-01-16T02:40:48.589Z,4.50
2019-01-16T02:43:48.190Z,3.95
2019-01-16T02:46:39.742Z,4.37
2019-01-16T02:49:30.331Z,4.30
2019-01-16T02:52:30.077Z,4.60
2019-01-16T02:55:18.890Z,4.17
2019-01-16T02:58:08.110Z,4.37
2019-01-16T03:01:10.611Z,4.40
2019-01-16T03:04:00.071Z,4.27
2019-01-16T03:06:50.825Z,3.75
2019-01-16T03:09:41.288Z,4.70
2019-01-16T03:12:30.766Z,4.33
2019-01-16T03:15:21.548Z,4.25
2019-01-16T03:18:12.031Z,3.83
2019-01-16T03:21:13.692Z,4.40
2019-01-16T03:24:07.236Z,3.60
2019-01-16T03:26:53.229Z,4.28
2019-01-16T03:29:49.583Z,4.80
2019-01-16T03:32:40.101Z,4.90
2019-01-16T03:35:24.604Z,4.13
2019-01-16T03:38:14.827Z,3.90
2019-01-16T03:40:59.761Z,4.57
2019-01-16T03:44:00.166Z,4.63
2019-01-16T03:46:53.524Z,4.00
2019-01-16T03:49:53.301Z,4.20
2019-01-16T03:52:46.531Z,4.70
2019-01-16T03:55:34.123Z,4.50
2019-01-16T03:58:21.700Z,5.40
2019-01-16T04:01:11.227Z,5.10
2019-01-16T04:04:20.288Z,5.63
2019-01-16T04:07:10.776Z,4.90
2019-01-16T04:10:10.338Z,4.00
2019-01-16T04:13:00.870Z,5.03
2019-01-16T04:16:03.344Z,5.30
2019-01-16T04:19:09.300Z,5.00
2019-01-16T04:22:05.522Z,4.43
2019-01-16T04:24:43.400Z,4.70
2019-01-16T04:27:26.696Z,4.50
2019-01-16T04:30:18.693Z,4.50
2019-01-16T04:33:01.545Z,4.73
2019-01-16T04:35:58.120Z,5.00
2019-01-16T04:38:48.586Z,5.13
2019-01-16T04:41:51.455Z,5.20
2019-01-16T04:44:40.801Z,5.03
2019-01-16T04:47:37.946Z,6.20
2019-01-16T04:50:20.103Z,5.50
2019-01-16T04:53:19.924Z,6.65
2019-01-16T04:56:16.750Z,5.80
2019-01-16T04:59:03.437Z,5.50
2019-01-16T05:02:06.060Z,5.65
2019-01-16T05:04:57.909Z,6.05
2019-01-16T05:07:55.167Z,5.25
2019-01-16T05:10:45.898Z,6.40
2019-01-16T05:13:39.225Z,6.62
2019-01-16T05:16:22.540Z,6.43
2019-01-16T05:19:25.051Z,6.60
2019-01-16T05:22:18.650Z,6.17
2019-01-16T05:25:08.386Z,6.35
2019-01-16T05:27:59.115Z,6.50
2019-01-16T05:30:55.382Z,5.97
2019-01-16T05:33:39.961Z,6.00
2019-01-16T05:36:33.722Z,5.85
2019-01-16T05:39:24.909Z,6.60
2019-01-16T05:42:15.397Z,6.13
2019-01-16T05:45:09.123Z,6.42
2019-01-16T05:47:58.777Z,6.75
2019-01-16T05:50:40.257Z,6.73
2019-01-16T05:53:34.022Z,6.60
2019-01-16T05:56:26.583Z,7.10
2019-01-16T05:59:26.186Z,6.83
2019-01-16T06:02:29.086Z,8.20
2019-01-16T06:05:11.608Z,10.72
2019-01-16T06:08:17.429Z,8.28
2019-01-16T06:11:14.911Z,8.00
2019-01-16T06:14:14.491Z,8.70
2019-01-16T06:17:11.554Z,6.95
2019-01-16T06:20:12.749Z,7.55
2019-01-16T06:23:11.970Z,7.30
2019-01-16T06:26:17.812Z,7.33
2019-01-16T06:29:07.222Z,7.87
2019-01-16T06:32:04.103Z,10.30
2019-01-16T06:34:43.946Z,8.15
2019-01-16T06:37:50.132Z,7.30
2019-01-16T06:40:50.994Z,7.17
2019-01-16T06:43:46.679Z,7.42
2019-01-16T06:46:55.573Z,9.27
2019-01-16T06:49:46.346Z,10.10
2019-01-16T06:52:34.943Z,9.30
2019-01-16T06:55:44.599Z,7.20
2019-01-16T06:58:37.127Z,8.45
2019-01-16T07:01:36.727Z,7.58
2019-01-16T07:04:27.502Z,8.10
2019-01-16T07:07:16.855Z,7.93
2019-01-16T07:10:06.032Z,7.72
2019-01-16T07:13:08.848Z,6.50
2019-01-16T07:16:08.772Z,6.53
2019-01-16T07:18:53.526Z,7.28
2019-01-16T07:21:52.429Z,7.28
2019-01-16T07:24:57.899Z,6.53
2019-01-16T07:27:50.287Z,7.17
2019-01-16T07:30:59.070Z,6.60
2019-01-16T07:33:42.097Z,7.33
2019-01-16T07:36:31.485Z,6.05
2019-01-16T07:39:22.821Z,6.00
2019-01-16T07:42:12.977Z,6.60
2019-01-16T07:45:04.394Z,6.58
2019-01-16T07:48:01.237Z,5.10
2019-01-16T07:50:58.296Z,5.72
2019-01-16T07:53:39.621Z,5.50
2019-01-16T07:56:37.564Z,5.53
2019-01-16T07:59:27.591Z,5.60
2019-01-16T08:02:17.387Z,6.20
2019-01-16T08:05:07.131Z,6.10
2019-01-16T08:08:12.848Z,6.60
2019-01-16T08:11:00.321Z,6.05
2019-01-16T08:14:00.527Z,6.33
2019-01-16T08:17:06.861Z,6.78
2019-01-16T08:19:56.104Z,6.50
2019-01-16T08:22:45.623Z,6.03
2019-01-16T08:25:36.088Z,7.03
2019-01-16T08:28:26.781Z,6.60
2019-01-16T08:31:07.136Z,5.80
2019-01-16T08:34:14.264Z,6.50
2019-01-16T08:37:03.386Z,6.45
2019-01-16T08:39:53.130Z,6.72
2019-01-16T08:42:42.494Z,6.10
2019-01-16T08:45:39.861Z,6.20
2019-01-16T08:48:24.589Z,6.10
2019-01-16T08:51:38.292Z,6.67
2019-01-16T08:54:27.805Z,7.50
2019-01-16T08:57:12.239Z,6.77
2019-01-16T09:00:06.050Z,6.37
2019-01-16T09:03:06.518Z,7.05
2019-01-16T09:06:00.220Z,7.10
2019-01-16T09:08:49.225Z,6.37
2019-01-16T09:11:39.774Z,6.73
2019-01-16T09:14:30.216Z,7.10
2019-01-16T09:17:49.254Z,6.77
2019-01-16T09:20:40.108Z,6.80
2019-01-16T09:23:25.713Z,7.20
2019-01-16T09:26:10.447Z,6.90
2019-01-16T09:29:00.894Z,7.40
2019-01-16T09:31:50.960Z,7.23
2019-01-16T09:34:33.887Z,6.50
2019-01-16T09:37:36.483Z,7.17
2019-01-16T09:40:33.363Z,7.53
2019-01-16T09:43:22.615Z,7.05
2019-01-16T09:46:12.291Z,6.83
2019-01-16T09:49:13.732Z,6.60
2019-01-16T09:52:10.256Z,6.40
2019-01-16T09:55:18.324Z,6.43
2019-01-16T09:58:07.586Z,6.80
2019-01-16T10:01:16.530Z,6.45
2019-01-16T10:04:05.694Z,6.43
2019-01-16T10:07:08.288Z,7.03
2019-01-16T10:10:02.169Z,6.85
2019-01-16T10:12:52.310Z,7.00
2019-01-16T10:15:39.456Z,7.20
2019-01-16T10:18:42.222Z,6.80
2019-01-16T10:21:29.862Z,8.07
2019-01-16T10:24:19.239Z,7.90
2019-01-16T10:27:15.796Z,7.87
2019-01-16T10:30:06.268Z,7.27
2019-01-16T10:33:15.578Z,8.33
2019-01-16T10:35:55.803Z,8.03
2019-01-16T10:39:01.375Z,8.40
2019-01-16T10:41:57.726Z,8.40
2019-01-16T10:45:00.535Z,8.30
2019-01-16T10:48:01.064Z,8.80
2019-01-16T10:51:03.336Z,8.20
2019-01-16T10:53:41.375Z,7.63
2019-01-16T10:56:29.620Z,8.10
2019-01-16T10:59:23.102Z,8.20
2019-01-16T11:02:13.762Z,6.87
2019-01-16T11:05:04.167Z,6.90
2019-01-16T11:08:03.869Z,7.80
2019-01-16T11:10:54.311Z,7.87
2019-01-16T11:13:44.487Z,8.13
2019-01-16T11:16:34.107Z,8.00
2019-01-16T11:19:23.753Z,7.60
2019-01-16T11:22:14.059Z,7.50
2019-01-16T11:25:10.493Z,6.80
2019-01-16T11:28:08.294Z,7.00
2019-01-16T11:30:53.393Z,7.00
2019-01-16T11:33:46.905Z,6.90
2019-01-16T11:36:36.434Z,7.10
2019-01-16T11:39:36.493Z,7.70
2019-01-16T11:42:25.850Z,7.27
2019-01-16T11:45:15.230Z,6.33
2019-01-16T11:48:11.252Z,6.27
2019-01-16T11:51:00.324Z,7.60
2019-01-16T11:53:49.412Z,6.93
2019-01-16T11:56:53.575Z,7.97
2019-01-16T11:59:43.997Z,6.27
2019-01-16T12:02:30.335Z,7.10
2019-01-16T12:05:29.096Z,7.60
2019-01-16T12:08:18.182Z,8.57
2019-01-16T12:11:09.579Z,7.10
2019-01-16T12:14:04.248Z,7.13
2019-01-16T12:17:01.952Z,7.20
2019-01-16T12:19:52.665Z,8.00
2019-01-16T12:22:41.941Z,6.30
2019-01-16T12:25:41.687Z,6.87
2019-01-16T12:28:32.113Z,6.70
2019-01-16T12:31:15.879Z,6.30
2019-01-16T12:34:08.399Z,6.53
2019-01-16T12:37:14.155Z,6.50
2019-01-16T12:40:02.941Z,8.73
2019-01-16T12:42:57.445Z,7.60
2019-01-16T12:45:40.396Z,6.40
2019-01-16T12:48:32.007Z,7.83
2019-01-16T12:51:22.441Z,6.57
2019-01-16T12:54:08.597Z,6.70
2019-01-16T12:57:08.021Z,7.07
2019-01-16T13:00:10.524Z,6.40
2019-01-16T13:02:48.664Z,6.70
2019-01-16T13:05:39.159Z,6.13
2019-01-16T13:08:38.741Z,6.37
2019-01-16T13:11:39.902Z,6.23
2019-01-16T13:14:22.964Z,6.37
2019-01-16T13:17:16.415Z,5.60
2019-01-16T13:20:07.133Z,5.90
2019-01-16T13:22:53.399Z,7.23
2019-01-16T13:25:53.228Z,7.00
2019-01-16T13:28:48.914Z,6.33
2019-01-16T13:31:48.565Z,6.50
2019-01-16T13:34:45.258Z,7.30
2019-01-16T13:37:34.402Z,6.80
2019-01-16T13:40:28.392Z,7.30
2019-01-16T13:43:21.838Z,7.47
2019-01-16T13:46:13.839Z,7.50
2019-01-16T13:49:07.103Z,7.10
2019-01-16T13:52:18.884Z,7.17
2019-01-16T13:55:08.327Z,7.13
2019-01-16T13:58:02.743Z,7.90
2019-01-16T14:00:56.887Z,7.97
2019-01-16T14:03:53.223Z,7.37
2019-01-16T14:06:52.211Z,7.63
2019-01-16T14:09:48.863Z,7.20
2019-01-16T14:12:39.326Z,7.00
2019-01-16T14:15:40.606Z,6.60
2019-01-16T14:18:22.908Z,7.30
2019-01-16T14:21:12.310Z,7.13
2019-01-16T14:24:01.465Z,6.30
2019-01-16T14:26:57.886Z,7.30
2019-01-16T14:29:48.336Z,7.70
2019-01-16T14:32:37.897Z,6.50
2019-01-16T14:35:37.628Z,6.67
2019-01-16T14:38:30.846Z,6.60
2019-01-16T14:41:30.381Z,6.30
2019-01-16T14:44:31.545Z,7.50
2019-01-16T14:47:40.034Z,7.27
2019-01-16T14:50:29.438Z,7.90
2019-01-16T14:53:12.078Z,8.67
2019-01-16T14:55:56.307Z,9.30
2019-01-16T14:58:38.825Z,8.30
2019-01-16T15:01:27.889Z,7.33
2019-01-16T15:04:15.816Z,7.47
2019-01-16T15:06:57.999Z,9.73
2019-01-16T15:09:47.283Z,8.47
2019-01-16T15:12:36.445Z,7.27
2019-01-16T15:15:30.345Z,6.90
2019-01-16T15:18:19.483Z,7.37
2019-01-16T15:21:08.579Z,7.57
2019-01-16T15:23:54.418Z,7.00
2019-01-16T15:26:40.860Z,6.67
2019-01-16T15:29:34.350Z,6.63
2019-01-16T15:32:16.697Z,7.23
2019-01-16T15:35:01.675Z,13.43
2019-01-16T15:37:46.285Z,9.53
2019-01-16T15:40:34.603Z,8.07
2019-01-16T15:43:40.540Z,8.53
2019-01-16T15:46:35.013Z,10.20
2019-01-16T15:49:28.223Z,9.30
2019-01-16T15:52:16.320Z,8.50
2019-01-16T15:55:16.041Z,7.83
2019-01-16T15:57:57.270Z,7.30
2019-01-16T16:00:47.710Z,7.10
2019-01-16T16:03:35.866Z,6.97
2019-01-16T16:06:33.493Z,8.10
2019-01-16T16:09:45.411Z,7.93
2019-01-16T16:12:34.686Z,7.30
2019-01-16T16:15:15.851Z,7.60
2019-01-16T16:18:18.515Z,6.67
2019-01-16T16:21:16.480Z,7.60
2019-01-16T16:24:06.899Z,7.67
2019-01-16T16:26:56.291Z,8.00
2019-01-16T16:29:56.266Z,7.40
2019-01-16T16:32:56.882Z,7.33
2019-01-16T16:35:56.306Z,7.00
2019-01-16T16:38:54.569Z,8.10
2019-01-16T16:41:43.519Z,7.50
2019-01-16T16:44:26.731Z,7.50
2019-01-16T16:47:20.177Z,7.00
2019-01-16T16:50:16.582Z,7.37
2019-01-16T16:53:03.441Z,8.13
2019-01-16T16:55:46.190Z,8.43
2019-01-16T16:58:54.763Z,9.73
2019-01-16T17:01:42.061Z,7.90
2019-01-16T17:04:45.384Z,9.57
2019-01-16T17:07:48.202Z,12.00
2019-01-16T17:10:40.422Z,10.50
2019-01-16T17:13:30.886Z,11.53
2019-01-16T17:16:21.347Z,12.80
2019-01-16T17:19:17.863Z,15.47
2019-01-16T17:22:05.858Z,14.77
2019-01-16T17:24:55.164Z,13.67
2019-01-16T17:27:57.790Z,13.03
2019-01-16T17:30:47.267Z,12.35
2019-01-16T17:33:56.624Z,11.68
2019-01-16T17:36:47.476Z,11.30
2019-01-16T17:39:36.877Z,12.43
2019-01-16T17:42:35.607Z,13.10
2019-01-16T17:45:27.229Z,20.88
2019-01-16T17:48:21.169Z,15.83
2019-01-16T17:51:10.841Z,23.95
2019-01-16T17:54:00.097Z,19.10
2019-01-16T17:56:49.417Z,17.57
2019-01-16T17:59:47.299Z,19.20
2019-01-16T18:02:49.906Z,17.17
2019-01-16T18:05:46.634Z,16.40
2019-01-16T18:08:48.370Z,17.87
2019-01-16T18:11:45.439Z,15.75
2019-01-16T18:14:33.002Z,15.38
2019-01-16T18:17:33.126Z,18.17
2019-01-16T18:20:29.747Z,16.70
2019-01-16T18:23:11.470Z,17.00
2019-01-16T18:26:14.420Z,16.95
2019-01-16T18:29:08.295Z,16.90
2019-01-16T18:31:58.184Z,18.62
2019-01-16T18:34:51.894Z,20.92
2019-01-16T18:37:36.894Z,18.80
2019-01-16T18:40:23.616Z,21.23
2019-01-16T18:43:13.316Z,16.87
2019-01-16T18:46:03.138Z,18.82
2019-01-16T18:48:57.227Z,22.80
2019-01-16T18:51:46.781Z,17.45
2019-01-16T18:54:36.699Z,23.18
2019-01-16T18:57:42.808Z,21.07
2019-01-16T19:00:29.061Z,20.48
2019-01-16T19:03:19.762Z,23.95
2019-01-16T19:06:11.970Z,19.52
2019-01-16T19:09:01.471Z,18.45
2019-01-16T19:11:46.096Z,18.85
2019-01-16T19:14:35.436Z,23.18
2019-01-16T19:17:17.344Z,19.35
2019-01-16T19:20:15.879Z,21.27
2019-01-16T19:22:59.239Z,24.43
2019-01-16T19:25:52.991Z,21.50
2019-01-16T19:28:40.372Z,21.48
2019-01-16T19:31:31.759Z,22.35
2019-01-16T19:34:22.546Z,24.82
2019-01-16T19:37:11.988Z,22.00
2019-01-16T19:39:54.909Z,22.37
2019-01-16T19:42:49.189Z,19.35
2019-01-16T19:45:40.237Z,20.15
2019-01-16T19:48:30.961Z,26.60
2019-01-16T19:51:21.701Z,31.80
2019-01-16T19:54:15.448Z,32.33
2019-01-16T19:57:24.721Z,26.33
2019-01-16T20:00:07.906Z,31.73
2019-01-16T20:02:57.856Z,39.58
2019-01-16T20:06:08.640Z,34.98
2019-01-16T20:09:17.638Z,23.65
2019-01-16T20:12:22.790Z,25.82
2019-01-16T20:15:11.693Z,24.07
2019-01-16T20:18:01.319Z,24.00
2019-01-16T20:20:56.361Z,38.67
2019-01-16T20:23:46.024Z,25.45
2019-01-16T20:26:36.746Z,27.42
2019-01-16T20:29:24.719Z,28.47
2019-01-16T20:32:14.438Z,27.67
2019-01-16T20:35:09.902Z,27.17
2019-01-16T20:37:56.673Z,26.55
2019-01-16T20:40:47.356Z,26.15
2019-01-16T20:43:54.275Z,27.10
2019-01-16T20:46:43.990Z,24.60
2019-01-16T20:49:32.253Z,20.35
2019-01-16T20:52:22.940Z,21.17
2019-01-16T20:55:12.291Z,22.50
2019-01-16T20:58:10.806Z,23.35
2019-01-16T21:01:19.682Z,25.25
2019-01-16T21:04:08.999Z,37.08
2019-01-16T21:07:03.577Z,33.92
2019-01-16T21:10:09.524Z,30.65
2019-01-16T21:13:00.214Z,28.70
2019-01-16T21:15:57.813Z,27.45
2019-01-16T21:18:43.158Z,23.18
2019-01-16T21:21:32.559Z,21.45
2019-01-16T21:24:26.391Z,19.32
2019-01-16T21:27:32.240Z,19.05
2019-01-16T21:30:29.048Z,20.00
2019-01-16T21:33:16.705Z,19.67
2019-01-16T21:36:07.425Z,24.07
2019-01-16T21:39:13.278Z,21.52
2019-01-16T21:42:04.013Z,24.55
2019-01-16T21:45:03.975Z,24.32
2019-01-16T21:47:54.701Z,22.90
2019-01-16T21:50:46.456Z,19.67
2019-01-16T21:53:30.615Z,18.32
2019-01-16T21:56:36.484Z,18.73
2019-01-16T21:59:29.985Z,18.82
2019-01-16T22:05:34.301Z,16.35
2019-01-16T22:08:25.178Z,17.85
2019-01-16T22:11:08.951Z,17.67
2019-01-16T22:14:02.519Z,16.93
2019-01-16T22:17:09.806Z,16.70
2019-01-16T22:20:11.180Z,16.67
2019-01-16T22:23:06.798Z,17.07
2019-01-16T22:26:10.291Z,18.65
2019-01-16T22:29:12.422Z,27.95
2019-01-16T22:31:53.973Z,19.05
2019-01-16T22:34:43.372Z,16.93
2019-01-16T22:37:24.017Z,17.90
2019-01-16T22:40:10.820Z,17.75
2019-01-16T22:42:58.480Z,19.87
2019-01-16T22:46:12.793Z,17.65
2019-01-16T22:48:55.567Z,19.05
2019-01-16T22:51:43.504Z,18.45
2019-01-16T22:54:32.892Z,16.67
2019-01-16T22:57:21.514Z,17.35
2019-01-16T23:00:07.552Z,23.20
2019-01-16T23:02:51.424Z,16.07
2019-01-16T23:05:46.224Z,18.12
2019-01-16T23:08:34.788Z,17.10
2019-01-16T23:11:15.035Z,17.62
2019-01-16T23:14:05.743Z,16.20
2019-01-16T23:16:53.451Z,14.87
2019-01-16T23:19:34.191Z,15.48
2019-01-16T23:22:18.273Z,12.45
2019-01-16T23:25:18.329Z,14.28
2019-01-16T23:28:02.208Z,14.05
2019-01-16T23:30:52.570Z,13.80
2019-01-16T23:33:43.308Z,17.48
2019-01-16T23:36:36.829Z,15.90
2019-01-16T23:39:34.874Z,12.93
2019-01-16T23:42:37.488Z,12.70
2019-01-16T23:45:23.615Z,13.40
2019-01-16T23:48:20.367Z,12.33
2019-01-16T23:51:20.392Z,11.73
2019-01-16T23:54:23.134Z,11.75
2019-01-16T23:57:23.950Z,10.25
